createdAt,value
2019-01-14T00:00:05.262Z,2.80
2019-01-14T00:02:33.698Z,2.80
2019-01-14T00:05:02.146Z,2.80
2019-01-14T00:07:30.585Z,2.70
2019-01-14T00:09:59.039Z,2.80
2019-01-14T00:12:27.469Z,2.90
2019-01-14T00:14:55.917Z,3.00
2019-01-14T00:17:24.365Z,3.10
2019-01-14T00:19:52.798Z,3.10
2019-01-14T00:22:21.250Z,3.10
2019-01-14T00:24:49.704Z,3.20
2019-01-14T00:27:18.166Z,3.30
2019-01-14T00:29:46.597Z,3.30
2019-01-14T00:32:15.029Z,3.30
2019-01-14T00:34:43.480Z,3.30
2019-01-14T00:37:11.981Z,3.10
2019-01-14T00:39:40.435Z,3.00
2019-01-14T00:42:08.870Z,3.00
2019-01-14T00:44:37.316Z,2.90
2019-01-14T00:47:05.762Z,2.90
2019-01-14T00:49:34.193Z,3.00
2019-01-14T00:52:02.643Z,3.00
2019-01-14T00:54:31.078Z,3.10
2019-01-14T00:56:59.510Z,3.10
2019-01-14T00:59:27.961Z,3.10
2019-01-14T01:01:56.409Z,3.20
2019-01-14T01:04:24.854Z,3.10
2019-01-14T01:06:53.287Z,3.10
2019-01-14T01:09:21.738Z,3.10
2019-01-14T01:11:50.262Z,3.10
2019-01-14T01:14:18.708Z,3.20
2019-01-14T01:16:47.144Z,3.30
2019-01-14T01:19:15.671Z,3.40
2019-01-14T01:21:44.169Z,3.40
2019-01-14T01:24:12.604Z,3.50
2019-01-14T01:26:41.054Z,3.50
2019-01-14T01:29:09.494Z,3.50
2019-01-14T01:31:37.941Z,3.50
2019-01-14T01:34:06.382Z,3.40
2019-01-14T01:36:34.897Z,3.40
2019-01-14T01:39:05.741Z,3.40
2019-01-14T01:41:34.192Z,3.60
2019-01-14T01:44:02.709Z,3.50
2019-01-14T01:46:31.229Z,3.40
2019-01-14T01:48:59.662Z,3.20
2019-01-14T01:51:28.109Z,4.20
2019-01-14T01:53:56.541Z,4.20
2019-01-14T01:56:24.998Z,4.10
2019-01-14T01:58:53.429Z,4.10
2019-01-14T02:01:21.876Z,4.10
2019-01-14T02:03:50.393Z,4.70
2019-01-14T02:06:18.825Z,5.20
2019-01-14T02:08:47.280Z,5.30
2019-01-14T02:11:15.718Z,5.70
2019-01-14T02:13:44.169Z,6.10
2019-01-14T02:16:12.601Z,6.70
2019-01-14T02:18:41.050Z,6.70
2019-01-14T02:21:09.502Z,6.70
2019-01-14T02:23:37.955Z,6.60
2019-01-14T02:26:06.401Z,6.40
2019-01-14T02:28:34.837Z,6.30
2019-01-14T02:31:03.437Z,6.00
2019-01-14T02:33:31.873Z,6.00
2019-01-14T02:36:00.391Z,6.00
2019-01-14T02:38:28.837Z,6.20
2019-01-14T02:40:57.271Z,6.20
2019-01-14T02:43:25.725Z,6.10
2019-01-14T02:45:54.169Z,6.10
2019-01-14T02:48:22.605Z,6.40
2019-01-14T02:50:51.042Z,6.30
2019-01-14T02:53:19.490Z,6.10
2019-01-14T02:55:47.937Z,6.00
2019-01-14T02:58:16.389Z,6.00
2019-01-14T03:00:44.841Z,6.00
2019-01-14T03:03:13.273Z,5.90
2019-01-14T03:05:41.722Z,5.90
2019-01-14T03:08:11.695Z,5.80
2019-01-14T03:10:40.126Z,5.80
2019-01-14T03:13:08.570Z,5.90
2019-01-14T03:15:37.005Z,5.80
2019-01-14T03:18:05.521Z,5.60
2019-01-14T03:20:33.977Z,5.50
2019-01-14T03:23:02.409Z,5.40
2019-01-14T03:25:30.980Z,5.30
2019-01-14T03:27:59.422Z,5.20
2019-01-14T03:30:27.862Z,5.20
2019-01-14T03:32:56.294Z,5.00
2019-01-14T03:35:24.801Z,4.90
2019-01-14T03:37:53.250Z,4.80
2019-01-14T03:40:21.697Z,4.70
2019-01-14T03:42:50.197Z,4.60
2019-01-14T03:45:18.784Z,4.50
2019-01-14T03:47:47.230Z,4.40
2019-01-14T03:50:18.226Z,4.30
2019-01-14T03:52:46.673Z,4.20
2019-01-14T03:55:15.213Z,4.20
2019-01-14T03:57:43.928Z,4.10
2019-01-14T04:00:15.035Z,4.10
2019-01-14T04:02:43.668Z,4.10
2019-01-14T04:05:12.360Z,4.00
2019-01-14T04:07:40.874Z,4.00
2019-01-14T04:10:14.143Z,4.00
2019-01-14T04:12:42.658Z,4.00
2019-01-14T04:15:13.823Z,4.00
2019-01-14T04:17:42.534Z,4.10
2019-01-14T04:20:13.721Z,4.10
2019-01-14T04:22:42.440Z,4.10
2019-01-14T04:25:11.793Z,4.20
2019-01-14T04:27:40.237Z,4.20
2019-01-14T04:30:17.712Z,4.30
2019-01-14T04:32:46.156Z,4.40
2019-01-14T04:35:14.825Z,4.40
2019-01-14T04:37:43.276Z,4.60
2019-01-14T04:40:14.150Z,4.60
2019-01-14T04:42:42.771Z,4.70
2019-01-14T04:45:12.941Z,4.70
2019-01-14T04:47:41.477Z,4.60
2019-01-14T04:50:13.075Z,4.60
2019-01-14T04:52:41.589Z,4.80
2019-01-14T04:55:10.266Z,4.70
2019-01-14T04:57:38.714Z,4.60
2019-01-14T05:00:10.267Z,4.80
2019-01-14T05:02:38.780Z,4.80
2019-01-14T05:05:08.081Z,4.70
2019-01-14T05:07:36.642Z,4.80
2019-01-14T05:10:11.374Z,5.00
2019-01-14T05:12:39.823Z,5.00
2019-01-14T05:15:10.907Z,4.80
2019-01-14T05:17:39.355Z,4.90
2019-01-14T05:20:10.873Z,4.70
2019-01-14T05:22:39.326Z,4.70
2019-01-14T05:25:08.797Z,4.90
2019-01-14T05:27:37.245Z,4.90
2019-01-14T05:30:09.073Z,4.80
2019-01-14T05:32:37.514Z,4.70
2019-01-14T05:35:07.499Z,4.90
2019-01-14T05:37:37.744Z,4.90
2019-01-14T05:40:23.449Z,5.00
2019-01-14T05:42:51.965Z,5.10
2019-01-14T05:45:20.453Z,5.10
2019-01-14T05:47:48.930Z,5.10
2019-01-14T05:50:17.470Z,5.10
2019-01-14T05:52:46.038Z,5.10
2019-01-14T05:55:16.735Z,5.10
2019-01-14T05:57:45.252Z,5.00
2019-01-14T06:00:22.405Z,5.10
2019-01-14T06:02:50.977Z,5.00
2019-01-14T06:05:19.421Z,5.00
2019-01-14T06:07:47.934Z,5.00
2019-01-14T06:10:16.443Z,5.00
2019-01-14T06:12:44.974Z,5.00
2019-01-14T06:15:15.520Z,4.90
2019-01-14T06:17:44.013Z,4.80
2019-01-14T06:20:15.649Z,4.80
2019-01-14T06:22:44.159Z,4.70
2019-01-14T06:25:14.623Z,4.60
2019-01-14T06:27:43.122Z,4.50
2019-01-14T06:30:26.635Z,4.40
2019-01-14T06:32:55.085Z,4.50
2019-01-14T06:35:23.518Z,4.60
2019-01-14T06:37:52.716Z,4.60
2019-01-14T06:40:21.791Z,4.70
2019-01-14T06:42:50.293Z,4.70
2019-01-14T06:45:18.974Z,4.60
2019-01-14T06:47:47.546Z,4.60
2019-01-14T06:50:18.136Z,4.60
2019-01-14T06:52:46.853Z,4.50
2019-01-14T06:55:15.926Z,4.30
2019-01-14T06:57:44.520Z,4.30
2019-01-14T07:00:18.749Z,4.30
2019-01-14T07:02:47.565Z,4.20
2019-01-14T07:05:16.139Z,4.20
2019-01-14T07:07:44.569Z,4.20
2019-01-14T07:10:16.105Z,4.30
2019-01-14T07:12:44.538Z,4.20
2019-01-14T07:15:13.117Z,4.10
2019-01-14T07:17:41.557Z,4.00
2019-01-14T07:20:12.216Z,3.80
2019-01-14T07:22:40.807Z,3.80
2019-01-14T07:25:10.074Z,3.90
2019-01-14T07:27:38.531Z,4.00
2019-01-14T07:30:10.197Z,4.00
2019-01-14T07:32:38.629Z,4.10
2019-01-14T07:35:07.601Z,4.20
2019-01-14T07:37:36.194Z,4.40
2019-01-14T07:40:07.785Z,4.50
2019-01-14T07:42:36.289Z,4.70
2019-01-14T07:45:06.580Z,4.90
2019-01-14T07:47:35.029Z,5.30
2019-01-14T07:50:05.489Z,5.40
2019-01-14T07:52:33.997Z,5.50
2019-01-14T07:55:02.661Z,5.60
2019-01-14T07:57:31.094Z,5.60
2019-01-14T07:59:59.557Z,5.70
2019-01-14T08:02:27.985Z,5.80
2019-01-14T08:04:56.433Z,5.90
2019-01-14T08:07:24.951Z,6.00
2019-01-14T08:09:53.388Z,6.10
2019-01-14T08:12:21.842Z,6.20
2019-01-14T08:14:50.274Z,6.30
2019-01-14T08:17:18.723Z,6.30
2019-01-14T08:19:47.152Z,6.40
2019-01-14T08:22:15.601Z,6.40
2019-01-14T08:24:44.036Z,6.50
2019-01-14T08:27:12.482Z,6.60
2019-01-14T08:29:40.985Z,6.60
2019-01-14T08:32:09.439Z,6.60
2019-01-14T08:34:37.870Z,6.70
2019-01-14T08:37:06.321Z,6.70
2019-01-14T08:39:34.757Z,6.70
2019-01-14T08:42:03.410Z,6.80
2019-01-14T08:44:33.541Z,6.90
2019-01-14T08:47:02.056Z,6.80
2019-01-14T08:49:30.525Z,6.80
2019-01-14T08:51:58.972Z,6.80
2019-01-14T08:54:27.426Z,6.80
2019-01-14T08:56:56.006Z,6.80
2019-01-14T08:59:24.477Z,6.90
2019-01-14T09:01:52.906Z,7.00
2019-01-14T09:04:22.681Z,7.00
2019-01-14T09:06:51.521Z,7.10
2019-01-14T09:09:19.969Z,7.10
2019-01-14T09:11:48.418Z,7.20
2019-01-14T09:14:16.869Z,7.30
2019-01-14T09:16:45.369Z,7.50
2019-01-14T09:19:13.817Z,7.60
2019-01-14T09:21:42.321Z,7.70
2019-01-14T09:24:10.774Z,7.70
2019-01-14T09:26:39.225Z,7.70
2019-01-14T09:29:07.661Z,7.80
2019-01-14T09:31:36.289Z,7.70
2019-01-14T09:34:05.845Z,7.80
2019-01-14T09:36:34.350Z,7.80
2019-01-14T09:39:04.042Z,8.00
2019-01-14T09:41:32.473Z,8.00
2019-01-14T09:44:00.929Z,8.00
2019-01-14T09:46:29.365Z,8.10
2019-01-14T09:48:57.801Z,8.10
2019-01-14T09:51:26.250Z,7.90
2019-01-14T09:53:54.690Z,7.80
2019-01-14T09:56:23.137Z,7.60
2019-01-14T09:58:51.574Z,7.70
2019-01-14T10:01:20.025Z,7.40
2019-01-14T10:03:48.464Z,7.20
2019-01-14T10:06:16.910Z,7.20
2019-01-14T10:08:45.360Z,7.10
2019-01-14T10:11:13.793Z,7.10
2019-01-14T10:13:42.246Z,7.10
2019-01-14T10:16:10.697Z,7.00
2019-01-14T10:18:39.129Z,7.00
2019-01-14T10:21:07.581Z,7.00
2019-01-14T10:23:36.014Z,7.00
2019-01-14T10:26:04.872Z,6.90
2019-01-14T10:28:33.305Z,6.90
2019-01-14T10:31:01.824Z,7.00
2019-01-14T10:33:30.367Z,7.00
2019-01-14T10:35:58.877Z,7.00
2019-01-14T10:38:27.320Z,7.10
2019-01-14T10:40:55.757Z,7.10
2019-01-14T10:43:24.304Z,7.20
2019-01-14T10:45:52.793Z,7.20
2019-01-14T10:48:21.249Z,7.20
2019-01-14T10:50:49.749Z,7.00
2019-01-14T10:53:18.203Z,7.00
2019-01-14T10:55:46.661Z,6.90
2019-01-14T10:58:15.179Z,6.80
2019-01-14T11:00:43.634Z,6.90
2019-01-14T11:03:12.136Z,6.80
2019-01-14T11:05:40.638Z,6.90
2019-01-14T11:08:09.083Z,6.90
2019-01-14T11:10:37.533Z,7.00
2019-01-14T11:13:05.965Z,7.00
2019-01-14T11:15:34.394Z,7.10
2019-01-14T11:18:02.841Z,7.10
2019-01-14T11:20:31.457Z,7.00
2019-01-14T11:23:00.205Z,7.10
2019-01-14T11:25:28.754Z,7.30
2019-01-14T11:27:57.529Z,7.40
2019-01-14T11:30:28.681Z,7.30
2019-01-14T11:32:57.185Z,7.40
2019-01-14T11:35:25.701Z,7.40
2019-01-14T11:37:54.277Z,7.50
2019-01-14T11:40:28.345Z,7.50
2019-01-14T11:42:56.776Z,7.60
2019-01-14T11:45:25.304Z,7.70
2019-01-14T11:47:53.742Z,7.70
2019-01-14T11:50:22.241Z,7.70
2019-01-14T11:52:50.696Z,7.50
2019-01-14T11:55:19.125Z,7.40
2019-01-14T11:57:47.573Z,7.00
2019-01-14T12:00:21.689Z,6.90
2019-01-14T12:02:50.478Z,6.80
2019-01-14T12:05:19.155Z,6.70
2019-01-14T12:07:47.732Z,6.60
2019-01-14T12:10:16.324Z,6.50
2019-01-14T12:12:44.837Z,6.50
2019-01-14T12:15:22.422Z,6.40
2019-01-14T12:17:50.921Z,6.30
2019-01-14T12:20:38.710Z,6.40
2019-01-14T12:23:07.293Z,6.50
2019-01-14T12:25:35.809Z,6.50
2019-01-14T12:28:04.399Z,6.60
2019-01-14T12:30:35.573Z,6.60
2019-01-14T12:33:04.462Z,6.70
2019-01-14T12:35:33.066Z,6.70
2019-01-14T12:38:01.509Z,6.80
2019-01-14T12:40:29.942Z,6.80
2019-01-14T12:42:58.461Z,6.80
2019-01-14T12:45:26.962Z,6.80
2019-01-14T12:47:55.465Z,6.80
2019-01-14T12:50:25.058Z,6.80
2019-01-14T12:52:53.650Z,6.80
2019-01-14T12:55:22.103Z,6.80
2019-01-14T12:57:50.548Z,6.80
2019-01-14T13:00:24.725Z,6.80
2019-01-14T13:02:58.151Z,6.90
2019-01-14T13:05:25.049Z,6.90
2019-01-14T13:07:53.569Z,6.90
2019-01-14T13:10:22.070Z,7.00
2019-01-14T13:12:50.575Z,6.80
2019-01-14T13:15:24.333Z,6.90
2019-01-14T13:17:52.917Z,6.80
2019-01-14T13:20:22.853Z,6.80
2019-01-14T13:22:51.356Z,6.80
2019-01-14T13:25:19.942Z,6.80
2019-01-14T13:27:48.515Z,6.80
2019-01-14T13:30:19.753Z,6.80
2019-01-14T13:32:48.337Z,6.70
2019-01-14T13:35:16.909Z,6.70
2019-01-14T13:37:45.421Z,6.60
2019-01-14T13:40:14.492Z,6.50
2019-01-14T13:42:42.937Z,6.60
2019-01-14T13:45:14.218Z,6.60
2019-01-14T13:47:42.801Z,6.50
2019-01-14T13:50:14.513Z,6.50
2019-01-14T13:52:43.084Z,6.50
2019-01-14T13:55:12.019Z,6.50
2019-01-14T13:57:40.510Z,6.50
2019-01-14T14:00:12.819Z,6.50
2019-01-14T14:02:41.337Z,6.50
2019-01-14T14:05:10.174Z,6.40
2019-01-14T14:07:38.693Z,6.40
2019-01-14T14:10:21.901Z,6.30
2019-01-14T14:12:50.490Z,6.30
2019-01-14T14:15:19.787Z,6.20
2019-01-14T14:17:48.213Z,6.10
2019-01-14T14:20:18.000Z,6.10
2019-01-14T14:22:46.501Z,6.00
2019-01-14T14:25:14.953Z,6.00
2019-01-14T14:27:44.517Z,6.00
2019-01-14T14:30:27.980Z,6.00
2019-01-14T14:32:56.819Z,6.00
2019-01-14T14:35:25.341Z,5.90
2019-01-14T14:38:00.617Z,5.80
2019-01-14T14:40:24.072Z,5.80
2019-01-14T14:42:52.794Z,5.70
2019-01-14T14:45:21.230Z,5.70
2019-01-14T14:47:49.665Z,5.60
2019-01-14T14:50:19.757Z,5.50
2019-01-14T14:52:48.337Z,5.50
2019-01-14T14:55:16.786Z,5.40
2019-01-14T14:57:45.281Z,5.20
2019-01-14T15:00:21.945Z,5.10
2019-01-14T15:02:50.451Z,5.10
2019-01-14T15:05:19.455Z,5.10
2019-01-14T15:07:48.309Z,4.90
2019-01-14T15:10:18.881Z,4.70
2019-01-14T15:12:47.401Z,4.60
2019-01-14T15:15:17.618Z,4.40
2019-01-14T15:17:46.118Z,4.50
2019-01-14T15:20:19.713Z,4.50
2019-01-14T15:22:48.228Z,4.60
2019-01-14T15:25:16.814Z,4.50
2019-01-14T15:27:45.262Z,4.40
2019-01-14T15:30:19.748Z,4.40
2019-01-14T15:32:48.181Z,4.30
2019-01-14T15:35:16.777Z,4.30
2019-01-14T15:37:45.277Z,4.30
2019-01-14T15:40:16.650Z,4.20
2019-01-14T15:42:45.226Z,4.20
2019-01-14T15:45:16.575Z,4.20
2019-01-14T15:47:45.025Z,4.20
2019-01-14T15:50:13.525Z,4.00
2019-01-14T15:52:42.112Z,3.90
2019-01-14T15:55:19.308Z,3.80
2019-01-14T15:57:47.974Z,3.70
2019-01-14T16:00:18.273Z,3.60
2019-01-14T16:02:46.845Z,3.60
2019-01-14T16:05:16.704Z,3.60
2019-01-14T16:07:45.210Z,3.80
2019-01-14T16:10:16.579Z,3.90
2019-01-14T16:12:45.073Z,3.80
2019-01-14T16:15:14.088Z,3.90
2019-01-14T16:17:42.598Z,3.80
2019-01-14T16:20:14.065Z,3.70
2019-01-14T16:22:42.569Z,3.60
2019-01-14T16:25:11.158Z,3.50
2019-01-14T16:27:39.782Z,3.30
2019-01-14T16:30:16.962Z,3.40
2019-01-14T16:32:45.414Z,3.40
2019-01-14T16:35:13.931Z,3.40
2019-01-14T16:37:42.512Z,3.50
2019-01-14T16:40:17.590Z,3.50
2019-01-14T16:42:41.535Z,3.50
2019-01-14T16:45:13.345Z,3.50
2019-01-14T16:47:41.862Z,3.50
2019-01-14T16:50:12.454Z,3.40
2019-01-14T16:52:41.028Z,3.40
2019-01-14T16:55:11.070Z,3.40
2019-01-14T16:57:39.590Z,3.40
2019-01-14T17:00:16.629Z,3.40
2019-01-14T17:02:45.135Z,3.50
2019-01-14T17:05:14.342Z,3.60
2019-01-14T17:07:42.792Z,3.60
2019-01-14T17:10:13.861Z,3.60
2019-01-14T17:12:42.370Z,3.60
2019-01-14T17:15:11.131Z,3.60
2019-01-14T17:17:39.640Z,3.50
2019-01-14T17:20:13.803Z,3.50
2019-01-14T17:22:42.233Z,3.40
2019-01-14T17:25:10.908Z,3.30
2019-01-14T17:27:39.446Z,3.10
2019-01-14T17:30:10.897Z,3.00
2019-01-14T17:32:39.350Z,2.90
2019-01-14T17:35:08.226Z,2.80
2019-01-14T17:37:36.757Z,2.60
2019-01-14T17:40:08.602Z,2.50
2019-01-14T17:42:37.050Z,2.30
2019-01-14T17:45:08.125Z,2.20
2019-01-14T17:47:37.347Z,2.20
2019-01-14T17:50:09.111Z,2.00
2019-01-14T17:52:37.635Z,2.00
2019-01-14T17:55:06.803Z,2.10
2019-01-14T17:57:35.253Z,2.10
2019-01-14T18:00:05.510Z,2.00
2019-01-14T18:02:33.968Z,2.00
2019-01-14T18:05:04.351Z,1.90
2019-01-14T18:07:32.650Z,2.00
2019-01-14T18:10:01.086Z,1.90
2019-01-14T18:12:29.537Z,1.80
2019-01-14T18:14:57.969Z,1.60
2019-01-14T18:17:26.416Z,1.70
2019-01-14T18:19:54.866Z,1.90
2019-01-14T18:22:23.314Z,1.90
2019-01-14T18:24:51.761Z,1.90
2019-01-14T18:27:20.194Z,1.90
2019-01-14T18:29:48.713Z,1.90
2019-01-14T18:32:17.233Z,1.90
2019-01-14T18:34:45.668Z,1.80
2019-01-14T18:37:14.189Z,1.60
2019-01-14T18:39:42.633Z,1.60
2019-01-14T18:42:11.081Z,1.50
2019-01-14T18:44:39.509Z,1.30
2019-01-14T18:47:07.959Z,1.40
2019-01-14T18:49:36.450Z,1.40
2019-01-14T18:52:04.994Z,1.40
2019-01-14T18:54:33.426Z,1.40
2019-01-14T18:57:01.876Z,1.30
2019-01-14T18:59:30.322Z,1.40
2019-01-14T19:01:58.753Z,1.40
2019-01-14T19:04:27.227Z,1.70
2019-01-14T19:06:55.657Z,1.80
2019-01-14T19:09:24.105Z,1.70
2019-01-14T19:11:52.541Z,2.20
2019-01-14T19:14:20.991Z,2.40
2019-01-14T19:16:49.492Z,2.40
2019-01-14T19:19:17.926Z,2.40
2019-01-14T19:21:46.445Z,2.40
2019-01-14T19:24:14.881Z,2.40
2019-01-14T19:26:43.331Z,2.40
2019-01-14T19:29:11.771Z,2.50
2019-01-14T19:31:50.400Z,2.60
2019-01-14T19:34:18.906Z,2.50
2019-01-14T19:36:47.354Z,2.60
2019-01-14T19:39:15.806Z,2.70
2019-01-14T19:41:44.242Z,2.70
2019-01-14T19:44:12.694Z,2.70
2019-01-14T19:46:41.125Z,2.80
2019-01-14T19:49:09.562Z,2.80
2019-01-14T19:51:38.005Z,2.70
2019-01-14T19:54:06.444Z,2.60
2019-01-14T19:56:34.894Z,2.60
2019-01-14T19:59:03.465Z,2.50
2019-01-14T20:01:31.914Z,2.40
2019-01-14T20:04:00.353Z,2.30
2019-01-14T20:06:28.794Z,2.20
2019-01-14T20:08:57.231Z,2.10
2019-01-14T20:11:25.684Z,2.00
2019-01-14T20:13:54.129Z,2.00
2019-01-14T20:16:22.566Z,1.90
2019-01-14T20:18:51.020Z,1.90
2019-01-14T20:21:19.450Z,1.90
2019-01-14T20:23:52.318Z,1.90
2019-01-14T20:26:18.075Z,2.00
2019-01-14T20:28:46.530Z,2.00
2019-01-14T20:31:15.029Z,2.00
2019-01-14T20:33:43.550Z,2.00
2019-01-14T20:36:11.985Z,1.80
2019-01-14T20:38:40.437Z,1.80
2019-01-14T20:41:08.951Z,1.70
2019-01-14T20:43:37.398Z,1.70
2019-01-14T20:46:05.837Z,1.70
2019-01-14T20:48:34.289Z,1.60
2019-01-14T20:51:02.791Z,1.60
2019-01-14T20:53:31.235Z,1.50
2019-01-14T20:55:59.681Z,1.50
2019-01-14T20:58:28.201Z,1.50
2019-01-14T21:00:56.727Z,1.50
2019-01-14T21:03:25.173Z,1.40
2019-01-14T21:05:53.643Z,1.40
2019-01-14T21:08:22.173Z,1.40
2019-01-14T21:10:50.621Z,1.20
2019-01-14T21:13:19.130Z,1.20
2019-01-14T21:15:47.574Z,1.10
2019-01-14T21:18:16.168Z,1.10
2019-01-14T21:20:44.666Z,1.10
2019-01-14T21:23:13.131Z,1.10
2019-01-14T21:26:00.969Z,1.00
2019-01-14T21:28:29.497Z,0.90
2019-01-14T21:30:57.931Z,0.90
2019-01-14T21:33:26.378Z,0.90
2019-01-14T21:35:54.810Z,0.80
2019-01-14T21:38:23.261Z,0.90
2019-01-14T21:40:51.778Z,0.90
2019-01-14T21:43:20.213Z,0.90
2019-01-14T21:45:48.666Z,0.80
2019-01-14T21:48:17.567Z,0.70
2019-01-14T21:50:46.164Z,0.70
2019-01-14T21:53:14.597Z,0.60
2019-01-14T21:55:43.032Z,0.60
2019-01-14T21:58:11.562Z,0.50
2019-01-14T22:00:40.062Z,0.40
2019-01-14T22:03:08.578Z,0.40
2019-01-14T22:05:37.097Z,0.40
2019-01-14T22:08:05.618Z,0.20
2019-01-14T22:10:34.062Z,0.20
2019-01-14T22:13:02.581Z,0.20
2019-01-14T22:15:31.173Z,0.20
2019-01-14T22:17:59.682Z,0.20
2019-01-14T22:20:28.398Z,0.20
2019-01-14T22:22:57.007Z,0.30
2019-01-14T22:25:25.597Z,0.40
2019-01-14T22:27:54.039Z,0.40
2019-01-14T22:30:27.577Z,0.30
2019-01-14T22:32:56.149Z,0.40
2019-01-14T22:35:24.599Z,0.40
2019-01-14T22:37:53.101Z,0.50
2019-01-14T22:40:21.619Z,0.50
2019-01-14T22:43:02.393Z,0.50
2019-01-14T22:45:31.024Z,0.50
2019-01-14T22:47:59.726Z,0.50
2019-01-14T22:50:28.229Z,0.50
2019-01-14T22:52:56.673Z,0.50
2019-01-14T22:55:25.112Z,0.50
2019-01-14T22:57:53.644Z,0.50
2019-01-14T23:00:49.095Z,0.40
2019-01-14T23:03:17.949Z,0.40
2019-01-14T23:05:46.377Z,0.20
2019-01-14T23:08:14.831Z,0.20
2019-01-14T23:10:43.283Z,0.00
2019-01-14T23:13:11.729Z,0.00
2019-01-14T23:15:40.323Z,0.00
2019-01-14T23:18:08.757Z,-0.10
2019-01-14T23:20:37.225Z,-0.20
2019-01-14T23:23:05.733Z,-0.20
2019-01-14T23:25:34.166Z,-0.30
2019-01-14T23:28:02.695Z,-0.40
2019-01-14T23:30:31.181Z,-0.40
2019-01-14T23:32:59.617Z,-0.50
2019-01-14T23:35:28.054Z,-0.40
2019-01-14T23:37:56.509Z,-0.40
2019-01-14T23:40:24.942Z,-0.40
2019-01-14T23:42:53.530Z,-0.50
2019-01-14T23:45:22.039Z,-0.70
2019-01-14T23:47:50.493Z,-0.80
2019-01-14T23:50:18.933Z,-0.80
2019-01-14T23:52:47.395Z,-0.70
2019-01-14T23:55:15.833Z,-0.60
2019-01-14T23:57:44.286Z,-0.60
